EVRA/RIX METAR and TAF weather

Enter ICAO airport designator
Station Type Date Time Source
EVRA METAR 2018/12/10 17:50 UTC NOAA

EVRA 101750Z 21003KT 9999 SCT003 01/01 Q0999 R18/290195 NOSIG


Station Type Date Time Source
EVRA Decoded METAR 2018/12/10 17:50 UTC NOAA

Riga International Airport, Latvia (EVRA) 56-55N 023-58E
Dec 10, 2018 - 12:50 PM EST / 2018.12.10 1750 UTC
Wind: from the SSW (210 degrees) at 3 MPH (3 KT):0
Visibility: greater than 7 mile(s):0
Sky conditions: partly cloudy
Temperature: 33 F (1 C)
Dew Point: 33 F (1 C)
Relative Humidity: 100%
Pressure (altimeter): 29.50 in. Hg (0999 hPa)
ob: EVRA 101750Z 21003KT 9999 SCT003 01/01 Q0999 R18/290195 NOSIG
cycle: 18

Station Type Date Time Source
EVRA TAF 2018/12/10 18:03 UTC NOAA

TAF EVRA 101700Z 1018/1118 23005KT 8000 SCT030
TEMPO 1018/1022 0700 FZFG BKN002
BECMG 1022/1024 VRB02KT 3000 BR OVC005
TEMPO 1100/1109 0500 FZFG OVC001
TEMPO 1109/1115 5000 BR OVC002


Example: see airport list